Terminal Aerodrome Forecast
Issued by NWS Bismarck, ND

Home | Current Version | Previous Version | Text Only | Print | Product List | Glossary Off
Versions: 1 2 3 4 5 6 7 8 9 10 11 12 13 14 15 16

000
FTUS43 KBIS 261100
TAFISN
TAF
KISN 261120Z 2612/2712 26008KT P6SM BKN110
     FM261500 27005KT P6SM SCT110
     FM262000 23007KT P6SM FEW110 SCT150
     FM270100 17004KT P6SM SCT150
     FM270600 18004KT P6SM SKC=

USA.gov is the U.S. government's official web portal to all federal, state and local government web resources and services.